Tiempo atmosférico en la estación meteorológica de Becerreá, Lugo (1080 m.)

Fecha
DESCASC
Temp. máxima en grados centígrados (hora)
DESCASC
Temp. mínima en grados centígrados (hora)
DESCASC
Temp. media en grados centígrados
DESCASC
Racha de viento máxima en m/sg (hora)
DESCASC
Velocidad máxima media en intervalos de 10 minutos(hora)
DESCASC
Precipitaciones diarias en mm
DESCASC
Precipitaciones de 00:00 a 06:00 en mm
DESCASC
Precipitaciones de 06:00 a 12:00 en mm
DESCASC
Precipitaciones de 12:00 a 18:00 en mm
DESCASC
Precipitaciones de 18:00 a 24:00 en mm
DESCASC
21-08-2017 33.4 (17:40) 21.1 (07:40) 27.3 11.11 (04:00) 5.83 (19:50) 0 0 0 0 0
20-08-2017 29.3 (17:00) 11.4 (04:40) 20.3 7.78 (07:00) 2.22 (18:10) 0 0 0 0 0
19-08-2017 23.2 (17:20) 11.6 (07:40) 17.4 6.11 (06:30) 2.78 (19:00) 0 0 0 0 0
18-08-2017 21.9 (17:10) 13.6 (05:00) 17.8 6.39 (15:50) 3.33 (04:30) 0.2 0 0.2 0 0
17-08-2017 25.8 (18:50) 13.5 (00:00) 19.6 7.78 (21:20) 4.44 (21:20) 0 0 0 0 0
16-08-2017 24 (18:10) 10.5 (00:00) 17.3 7.22 (20:20) 3.61 (20:20) 0 0 0 0 0
15-08-2017 22 (17:10) 13.1 (00:00) 17.6 7.22 (15:50) 3.33 (21:20) 0 0 0 0 0
14-08-2017 24 (15:50) 14.5 (22:50) 19.3 9.44 (14:40) 5.83 (14:40) 0 0 0 0 0
13-08-2017 27.6 (17:40) 11.5 (00:00) 19.6 7.5 (07:40) 4.44 (07:40) 0 0 0 0 0
12-08-2017 25.6 (17:10) 11.8 (00:00) 18.7 6.39 (05:00) 3.89 (05:30) 0 0 0 0 0
11-08-2017 22.9 (16:40) 7.5 (00:00) 15.2 5.28 (17:50) 3.33 (06:30) 0 0 0 0 0
10-08-2017 18.5 (16:00) 6.5 (00:00) 12.5 7.78 (00:50) 2.78 (13:20) 0 0 0 0 0
09-08-2017 14.3 (15:30) 6.9 (00:00) 10.6 8.89 (23:20) 3.33 (18:20) 0 0 0 0 0
08-08-2017 16.4 (18:10) 7 (00:00) 11.7 6.67 (18:10) 3.33 (20:20) 0.2 0 0.2 0 0
07-08-2017 14.9 (13:30) 8 (00:00) 11.4 8.06 (21:40) 2.78 (20:30) 0 0 0 0 0
06-08-2017 20.9 (16:00) 9.8 (00:00) 15.3 9.72 (08:50) 2.78 (00:50) 0 0 0 0 0
05-08-2017 17 (00:30) 11 (00:00) 14 8.89 (22:50) 3.06 (22:20) 0.6 0.2 0.2 0.2 0
04-08-2017 25 (16:40) 15.5 (00:00) 20.3 8.33 (03:40) 3.89 (22:20) 0.6 0 0.6 0 0
03-08-2017 24.4 (17:30) 13.7 (00:00) 19 9.17 (19:10) 3.61 (00:30) 0.4 0 0.4 0 0
02-08-2017 24.4 (18:20) 11 (00:00) 17.7 7.78 (15:10) 4.44 (22:50) 0.2 0 0 0.2 0
01-08-2017 20.3 (17:50) 10.5 (00:00) 15.4 6.94 (19:20) 3.06 (21:40) 0 0 0 0 0
31-07-2017 18.5 (18:00) 10.4 (00:00) 14.4 6.11 (20:20) 2.5 (00:10) 0 0 0 0 0
30-07-2017 17.7 (16:00) 11 (00:00) 14.4 7.22 (04:20) 3.33 (20:30) 0 0 0 0 0
29-07-2017 23.4 (17:20) 14.1 (00:00) 18.8 10.56 (14:50) 3.89 (14:50) 2.2 0.2 2 0 0
28-07-2017 24.8 (16:40) 12.3 (00:00) 18.5 7.5 (18:20) 3.89 (18:50) 0 0 0 0 0
27-07-2017 22 (17:10) 14.2 (00:00) 18.1 8.06 (20:20) 3.33 (18:40) 0 0 0 0 0
26-07-2017 25.1 (17:50) 12.7 (00:00) 18.9 6.67 (17:00) 3.06 (19:00) 0 0 0 0 0
25-07-2017 21.1 (16:00) 8.9 (00:00) 15 6.39 (16:40) 2.5 (17:20) 0 0 0 0 0
24-07-2017 17.6 (17:10) 10.8 (00:00) 14.2 6.67 (16:50) 3.33 (04:30) 3.2 2.8 0.4 0 0
23-07-2017 19.3 (16:00) 9.5 (00:00) 14.4 6.94 (16:40) 3.89 (19:10) 0.2 0 0 0 0.2

Gráficas

Temp. máximas Temp. mínimas Temp. medias Precipitaciones Rachas de viento máximas Velocidades máximas media en intervalos de 10 minutos

Datos horarios

Fecha y hora oficial Temperatura (ºC) Velocidad del viento (km/h) Dirección del viento Racha (km/h) Dirección de racha Precipitación (mm) Presión (hPa) Tendencia (hPa) Humedad (%)
2017-08-21 23:00:00 23 9 Oeste 21 Oeste 0 -- -- 50
2017-08-21 22:00:00 23.8 12 Oeste 24 Noroeste 0 -- -- 48
2017-08-21 21:00:00 24.8 14 Oeste 31 Oeste 0 -- -- 49
2017-08-21 20:00:00 26.6 18 Oeste 33 Oeste 0 -- -- 38
2017-08-21 19:00:00 29.7 15 Oeste 31 Oeste 0 -- -- 34
2017-08-21 18:00:00 33.3 11 Oeste 28 Oeste 0 -- -- 26
2017-08-21 17:00:00 32.7 6 Oeste 22 Sudoeste 0 -- -- 27
2017-08-21 16:00:00 32.6 11 Sudoeste 26 Sur 0 -- -- 25
2017-08-21 15:00:00 32.3 5 Oeste 14 Sudoeste 0 -- -- 26
2017-08-21 14:00:00 31.8 3 Sur 12 Este 0 -- -- 28
2017-08-21 13:00:00 30.6 4 Este 14 Norte 0 -- -- 33
2017-08-21 12:00:00 28 7 Este 17 Sudeste 0 -- -- 37
2017-08-21 11:00:00 25.2 6 Sudeste 26 Sudeste 0 -- -- 39
2017-08-21 10:00:00 23.2 10 Sudeste 35 Sudeste 0 -- -- 41
2017-08-21 09:00:00 22.2 15 Sudeste 36 Sudeste 0 -- -- 39
2017-08-21 08:00:00 21.3 15 Sudeste 35 Sudeste 0 -- -- 39
2017-08-21 07:00:00 21.5 19 Sudeste 40 Este 0 -- -- 40
2017-08-21 06:00:00 22 18 Sudeste 34 Sudeste 0 -- -- 38
2017-08-21 05:00:00 21.8 18 Sudeste 36 Sudeste 0 -- -- 40
2017-08-21 04:00:00 22 16 Sudeste 40 Sudeste 0 -- -- 41
2017-08-21 03:00:00 22.5 15 Sudeste 35 Sudeste 0 -- -- 39
2017-08-21 02:00:00 22.9 17 Sudeste 31 Sudeste 0 -- -- 38
2017-08-21 01:00:00 22 6 Este 22 Este 0 -- -- 49
2017-08-21 00:00:00 21.6 7 Sudeste 19 Este 0 -- -- 57
2017-08-20 23:00:00 20 0 Calma 7 Este 0 -- -- 66
2017-08-20 22:00:00 21.7 0 Calma 10 Este 0 -- -- 60
2017-08-20 21:00:00 23.5 2 Nordeste 10 Noroeste 0 -- -- 54
2017-08-20 20:00:00 25.4 5 Noroeste 14 Norte 0 -- -- 51
2017-08-20 19:00:00 26.5 6 Norte 19 Norte 0 -- -- 47
2017-08-20 18:00:00 28.5 8 Noroeste 17 Norte 0 -- -- 44
2017-08-20 17:00:00 29.3 3 Este 12 Este 0 -- -- 35
2017-08-20 16:00:00 28.5 3 Este 14 Nordeste 0 -- -- 35
2017-08-20 15:00:00 27.3 4 Nordeste 14 Norte 0 -- -- 40
2017-08-20 14:00:00 25.6 3 Este 14 Sudeste 0 -- -- 42
2017-08-20 13:00:00 24.7 3 Nordeste 14 Nordeste 0 -- -- 46
2017-08-20 12:00:00 22.5 3 Nordeste 11 Sudeste 0 -- -- 47
2017-08-20 11:00:00 18.7 3 Este 13 Este 0 -- -- 55
2017-08-20 10:00:00 17 3 Este 13 Este 0 -- -- 60
2017-08-20 09:00:00 14.5 4 Este 18 Sudeste 0 -- -- 63
2017-08-20 08:00:00 12.8 5 Nordeste 22 Nordeste 0 -- -- 61
2017-08-20 07:00:00 13.1 6 Nordeste 28 Este 0 -- -- 73
2017-08-20 06:00:00 14 5 Nordeste 21 Este 0 -- -- 57
2017-08-20 05:00:00 11.6 6 Este 17 Este 0 -- -- 89
2017-08-20 04:00:00 11.6 3 Este 17 Este 0 -- -- 95
2017-08-20 03:00:00 11.6 6 Este 19 Este 0 -- -- 97
2017-08-20 02:00:00 11.9 4 Nordeste 18 Nordeste 0 -- -- 98
2017-08-20 01:00:00 12.4 5 Este 17 Nordeste 0 -- -- 97
2017-08-20 00:00:00 12.9 2 Este 12 Norte 0 -- -- 94
2017-08-19 23:00:00 13.7 3 Este 13 Norte 0 -- -- 92
2017-08-19 22:00:00 14.3 4 Nordeste 13 Norte 0 -- -- 89
2017-08-19 21:00:00 15.7 2 Nordeste 12 Norte 0 -- -- 79
2017-08-19 20:00:00 17.9 6 Noroeste 18 Oeste 0 -- -- 73
2017-08-19 19:00:00 20.3 10 Noroeste 21 Norte 0 -- -- 66
2017-08-19 18:00:00 22.8 8 Noroeste 21 Noroeste 0 -- -- 59
2017-08-19 17:00:00 23.1 6 Norte 16 Nordeste 0 -- -- 52
2017-08-19 16:00:00 22.9 3 Norte 13 Nordeste 0 -- -- 52
2017-08-19 15:00:00 21.3 4 Nordeste 13 Nordeste 0 -- -- 61
2017-08-19 14:00:00 20 5 Norte 14 Nordeste 0 -- -- 64
2017-08-19 13:00:00 19.2 4 Este 13 Nordeste 0 -- -- 69
2017-08-19 12:00:00 17.1 3 Nordeste 17 Este 0 -- -- 84
2017-08-19 11:00:00 13.9 4 Nordeste 16 Este 0 -- -- 100
2017-08-19 10:00:00 12.6 3 Nordeste 13 Nordeste 0 -- -- 100
2017-08-19 09:00:00 11.7 3 Nordeste 21 Este 0 -- -- 100
2017-08-19 08:00:00 11.6 4 Nordeste 15 Este 0 -- -- 100
2017-08-19 07:00:00 11.8 4 Nordeste 22 Norte 0 -- -- 100
2017-08-19 06:00:00 12 4 Nordeste 15 Nordeste 0 -- -- 100
2017-08-19 05:00:00 12.3 4 Nordeste 16 Este 0 -- -- 100
2017-08-19 04:00:00 12.6 4 Nordeste 16 Este 0 -- -- 100
2017-08-19 03:00:00 12.8 4 Nordeste 21 Nordeste 0 -- -- 100
2017-08-19 02:00:00 13.1 6 Nordeste 16 Nordeste 0 -- -- 99
2017-08-19 01:00:00 13.5 5 Nordeste 15 Nordeste 0 -- -- 98
2017-08-19 00:00:00 13.7 5 Nordeste 16 Nordeste 0 -- -- 98
2017-08-18 23:00:00 13.7 6 Nordeste 18 Nordeste 0 -- -- 97
2017-08-18 22:00:00 14.3 6 Nordeste 17 Nordeste 0 -- -- 94
2017-08-18 21:00:00 16 7 Norte 22 Norte 0 -- -- 90
2017-08-18 20:00:00 17.9 10 Noroeste 19 Noroeste 0 -- -- 81
2017-08-18 19:00:00 21.3 8 Noroeste 18 Noroeste 0 -- -- 67
2017-08-18 18:00:00 21.2 6 Norte 12 Norte 0 -- -- 57
2017-08-18 17:00:00 21.8 3 Norte 19 Noroeste 0 -- -- 59
2017-08-18 16:00:00 19.8 5 Nordeste 23 Norte 0 -- -- 68
2017-08-18 15:00:00 19.3 7 Noroeste 19 Noroeste 0 -- -- 69
2017-08-18 14:00:00 19.4 8 Noroeste 20 Noroeste 0 -- -- 75
2017-08-18 13:00:00 18.4 5 Noroeste 11 Noroeste 0 -- -- 84
2017-08-18 12:00:00 17.6 4 Nordeste 12 Nordeste 0 -- -- 81
2017-08-18 11:00:00 15.9 3 Nordeste 8 Norte 0 -- -- 97
2017-08-18 10:00:00 14.9 0 Calma 6 Norte 0 -- -- 100
2017-08-18 09:00:00 14.2 0 Calma 13 Este 0 -- -- 100
2017-08-18 08:00:00 13.9 4 Sudeste 12 Sudeste 0.2 -- -- 100
2017-08-18 07:00:00 14.4 3 Oeste 12 Sudoeste 0 -- -- 100
2017-08-18 06:00:00 13.8 5 Sudoeste 13 Sudoeste 0 -- -- 100
2017-08-18 05:00:00 13.6 8 Oeste 16 Oeste 0 -- -- 100
2017-08-18 04:00:00 13.8 9 Oeste 16 Oeste 0 -- -- 99
2017-08-18 03:00:00 14.1 6 Sudoeste 10 Oeste 0 -- -- 97
2017-08-18 02:00:00 14.4 8 Oeste 14 Noroeste 0 -- -- 97
2017-08-18 01:00:00 14.8 9 Oeste 13 Oeste 0 -- -- 98
2017-08-18 00:00:00 15.4 8 Oeste 17 Oeste 0 -- -- 97
2017-08-17 23:00:00 15.8 10 Oeste 26 Oeste 0 -- -- 96
2017-08-17 22:00:00 17.3 15 Oeste 28 Noroeste 0 -- -- 89
2017-08-17 21:00:00 21.2 15 Oeste 26 Oeste 0 -- -- 70
2017-08-17 20:00:00 24.2 9 Oeste 17 Oeste 0 -- -- 42
2017-08-17 19:00:00 25.7 8 Oeste 21 Oeste 0 -- -- 33
2017-08-17 18:00:00 25.4 8 Sudoeste 20 Sur 0 -- -- 37
2017-08-17 17:00:00 25.1 8 Oeste 23 Sudoeste 0 -- -- 47
2017-08-17 16:00:00 24.1 9 Oeste 19 Oeste 0 -- -- 52
2017-08-17 15:00:00 22.3 9 Oeste 18 Noroeste 0 -- -- 60
2017-08-17 14:00:00 22.1 7 Oeste 18 Sudoeste 0 -- -- 59
2017-08-17 13:00:00 21 5 Oeste 14 Sudoeste 0 -- -- 63
2017-08-17 12:00:00 18 2 Sudeste 14 Sur 0 -- -- 93
2017-08-17 11:00:00 15.4 4 Sur 12 Sudoeste 0 -- -- 100
2017-08-17 10:00:00 14.8 0 Calma 9 Oeste 0 -- -- 100
2017-08-17 09:00:00 14 4 Oeste 13 Sudoeste 0 -- -- 100
2017-08-17 08:00:00 13.7 10 Sudoeste 13 Sudoeste 0 -- -- 100
2017-08-17 07:00:00 13.6 8 Sudoeste 13 Sudoeste 0 -- -- 100
2017-08-17 06:00:00 13.8 10 Sudoeste 17 Oeste 0 -- -- 100
2017-08-17 05:00:00 15.4 5 Sudoeste 12 Sudoeste 0 -- -- 90
2017-08-17 04:00:00 14.6 6 Sudoeste 10 Sudeste 0 -- -- 97
2017-08-17 03:00:00 15.1 6 Sudeste 9 Sudeste 0 -- -- 97
2017-08-17 02:00:00 15.3 8 Sudoeste 12 Oeste 0 -- -- 94
2017-08-17 01:00:00 15.9 8 Oeste 11 Oeste 0 -- -- 92
2017-08-17 00:00:00 16.1 3 Noroeste 6 Noroeste 0 -- -- 91
2017-08-16 23:00:00 16.8 5 Oeste 17 Noroeste 0 -- -- 88
2017-08-16 22:00:00 17.6 10 Oeste 19 Noroeste 0 -- -- 85
2017-08-16 21:00:00 19.5 10 Noroeste 26 Noroeste 0 -- -- 76
2017-08-16 20:00:00 22.2 6 Noroeste 20 Noroeste 0 -- -- 62
2017-08-16 19:00:00 23.8 10 Oeste 23 Sudoeste 0 -- -- 53
2017-08-16 18:00:00 23.9 7 Oeste 20 Oeste 0 -- -- 55
2017-08-16 17:00:00 23.5 8 Oeste 24 Sudoeste 0 -- -- 54
2017-08-16 16:00:00 22.9 9 Oeste 21 Noroeste 0 -- -- 51
2017-08-16 15:00:00 22.2 6 Oeste 19 Oeste 0 -- -- 53
2017-08-16 14:00:00 20.6 8 Oeste 17 Noroeste 0 -- -- 51
2017-08-16 13:00:00 19.2 4 Oeste 8 Sudoeste 0 -- -- 64
2017-08-16 12:00:00 16.7 3 Sudoeste 10 Oeste 0 -- -- 69
2017-08-16 11:00:00 14.6 5 Oeste 13 Sudoeste 0 -- -- 68
2017-08-16 10:00:00 13.9 4 Sudoeste 7 Oeste 0 -- -- 63
2017-08-16 09:00:00 13 4 Sudoeste 8 Sudoeste 0 -- -- 63
2017-08-16 08:00:00 11.5 8 Sudoeste 13 Oeste 0 -- -- 67
2017-08-16 07:00:00 10.5 7 Oeste 9 Sudoeste 0 -- -- 51
2017-08-16 06:00:00 10.5 6 Sudoeste 9 Sudoeste 0 -- -- 70
2017-08-16 05:00:00 11.1 6 Sudoeste 9 Sudoeste 0 -- -- 82
2017-08-16 04:00:00 11.8 4 Sudoeste 15 Oeste 0 -- -- 100
2017-08-16 03:00:00 12.1 6 Oeste 10 Sudoeste 0 -- -- 98
2017-08-16 02:00:00 12.6 8 Oeste 13 Oeste 0 -- -- 96
2017-08-16 01:00:00 12.9 4 Oeste 8 Oeste 0 -- -- 92
2017-08-16 00:00:00 13.3 3 Noroeste 10 Noroeste 0 -- -- 90
2017-08-15 23:00:00 13.9 6 Oeste 14 Norte 0 -- -- 90
2017-08-15 22:00:00 14.4 9 Noroeste 22 Noroeste 0 -- -- 90
2017-08-15 21:00:00 15.8 11 Noroeste 21 Noroeste 0 -- -- 86
2017-08-15 20:00:00 18.6 11 Noroeste 21 Noroeste 0 -- -- 71
2017-08-15 19:00:00 19.9 9 Oeste 18 Oeste 0 -- -- 66
2017-08-15 18:00:00 21.3 9 Oeste 22 Oeste 0 -- -- 58
2017-08-15 17:00:00 21.5 9 Noroeste 22 Noroeste 0 -- -- 57
2017-08-15 16:00:00 21 10 Oeste 26 Noroeste 0 -- -- 58
2017-08-15 15:00:00 20.2 9 Oeste 20 Oeste 0 -- -- 62
2017-08-15 14:00:00 19.4 8 Oeste 15 Oeste 0 -- -- 69
2017-08-15 13:00:00 17 6 Noroeste 16 Oeste 0 -- -- 73
2017-08-15 12:00:00 14.9 8 Oeste 13 Noroeste 0 -- -- 91
2017-08-15 11:00:00 13.7 5 Oeste 11 Oeste 0 -- -- 100
2017-08-15 10:00:00 13.3 5 Oeste 11 Sudoeste 0 -- -- 100
2017-08-15 09:00:00 13.1 3 Sudoeste 6 Oeste 0 -- -- 100
2017-08-15 08:00:00 13.1 0 Calma 5 Noroeste 0 -- -- 100
2017-08-15 07:00:00 13.3 3 Noroeste 6 Norte 0 -- -- 100
2017-08-15 06:00:00 13.5 3 Noroeste 6 Noroeste 0 -- -- 100
2017-08-15 05:00:00 13.5 2 Noroeste 9 Noroeste 0 -- -- 100
2017-08-15 04:00:00 13.4 4 Oeste 13 Oeste 0 -- -- 100
2017-08-15 03:00:00 14.3 0 Calma 6 Este 0 -- -- 98
2017-08-15 02:00:00 13.7 0 Calma 8 Oeste 0 -- -- 99
2017-08-15 01:00:00 14.2 2 Oeste 5 Noroeste 0 -- -- 95
2017-08-15 00:00:00 14.9 0 Calma 12 Noroeste 0 -- -- 93
2017-08-14 23:00:00 14.5 7 Oeste 18 Oeste 0 -- -- 95
2017-08-14 22:00:00 15.7 14 Oeste 17 Oeste 0 -- -- 92
2017-08-14 21:00:00 18 9 Oeste 23 Noroeste 0 -- -- 85
2017-08-14 20:00:00 20.3 12 Oeste 22 Oeste 0 -- -- 74
2017-08-14 19:00:00 23.2 11 Oeste 26 Noroeste 0 -- -- 57
2017-08-14 18:00:00 22 13 Oeste 26 Oeste 0 -- -- 55
2017-08-14 17:00:00 23.5 9 Oeste 26 Oeste 0 -- -- 52
2017-08-14 16:00:00 23.9 10 Sudoeste 30 Oeste 0 -- -- 44
2017-08-14 15:00:00 22.4 18 Oeste 34 Oeste 0 -- -- 54
2017-08-14 14:00:00 22.6 10 Oeste 22 Sudoeste 0 -- -- 53
2017-08-14 13:00:00 22.7 9 Oeste 24 Sur 0 -- -- 55
2017-08-14 12:00:00 21.5 10 Sur 26 Sudoeste 0 -- -- 44
2017-08-14 11:00:00 20.3 9 Sudoeste 23 Sudoeste 0 -- -- 51
2017-08-14 10:00:00 20.5 7 Sudoeste 17 Sur 0 -- -- 57
2017-08-14 09:00:00 20.2 3 Sudoeste 13 Sudoeste 0 -- -- 54
2017-08-14 08:00:00 20 5 Sudoeste 17 Sur 0 -- -- 51
2017-08-14 07:00:00 20.1 12 Sur 19 Sudeste 0 -- -- 54
2017-08-14 06:00:00 21 13 Sur 20 Sur 0 -- -- 52
2017-08-14 05:00:00 21 13 Sur 18 Sudeste 0 -- -- 50
2017-08-14 04:00:00 21.4 10 Sur 16 Sudeste 0 -- -- 48
2017-08-14 03:00:00 21.3 9 Sur 16 Sur 0 -- -- 50
2017-08-14 02:00:00 19.8 9 Sudeste 14 Sudeste 0 -- -- 62
2017-08-14 01:00:00 18.3 5 Sudeste 11 Sudeste 0 -- -- 70
2017-08-14 00:00:00 17.7 3 Sudeste 6 Este 0 -- -- 74
2017-08-13 23:00:00 18.3 0 Calma 8 Este 0 -- -- 73
2017-08-13 22:00:00 19.4 0 Calma 10 Norte 0 -- -- 68
2017-08-13 21:00:00 20.9 4 Nordeste 11 Nordeste 0 -- -- 68
2017-08-13 20:00:00 22.9 6 Norte 19 Noroeste 0 -- -- 62
2017-08-13 19:00:00 25 11 Noroeste 20 Noroeste 0 -- -- 50
2017-08-13 18:00:00 27.5 4 Noroeste 16 Sudoeste 0 -- -- 43
2017-08-13 17:00:00 27 7 Oeste 20 Noroeste 0 -- -- 38
2017-08-13 16:00:00 26.7 6 Oeste 17 Norte 0 -- -- 39
2017-08-13 15:00:00 25.7 4 Norte 13 Nordeste 0 -- -- 43
2017-08-13 14:00:00 24.5 4 Nordeste 9 Nordeste 0 -- -- 49
2017-08-13 13:00:00 23.9 2 Este 15 Sudeste 0 -- -- 49
2017-08-13 12:00:00 20.9 6 Este 19 Este 0 -- -- 54
2017-08-13 11:00:00 18.5 6 Este 18 Sudeste 0 -- -- 64
2017-08-13 10:00:00 17.4 8 Sudeste 22 Sudeste 0 -- -- 66
2017-08-13 09:00:00 16.5 9 Sudeste 27 Sudeste 0 -- -- 62
2017-08-13 08:00:00 14.7 12 Sudeste 27 Sudeste 0 -- -- 70
2017-08-13 07:00:00 11.9 6 Sudeste 13 Sudeste 0 -- -- 93
2017-08-13 06:00:00 11.6 3 Este 11 Sudeste 0 -- -- 95
2017-08-13 05:00:00 11.6 2 Este 9 Sudeste 0 -- -- 95
2017-08-13 04:00:00 12 3 Este 12 Nordeste 0 -- -- 94
2017-08-13 03:00:00 12.4 3 Este 12 Este 0 -- -- 92
2017-08-13 02:00:00 13.2 3 Este 13 Este 0 -- -- 89
2017-08-13 01:00:00 13.8 4 Este 20 Este 0 -- -- 88
2017-08-13 00:00:00 14.4 3 Este 8 Sudeste 0 -- -- 85
2017-08-12 23:00:00 15.4 2 Nordeste 9 Este 0 -- -- 78
2017-08-12 22:00:00 16.6 3 Nordeste 15 Nordeste 0 -- -- 73
2017-08-12 21:00:00 18 6 Nordeste 13 Nordeste 0 -- -- 73
2017-08-12 20:00:00 19.6 6 Norte 19 Oeste 0 -- -- 69
2017-08-12 19:00:00 22.6 7 Noroeste 20 Noroeste 0 -- -- 60
2017-08-12 18:00:00 23.9 7 Noroeste 15 Norte 0 -- -- 46
2017-08-12 17:00:00 25.5 7 Noroeste 17 Noroeste 0 -- -- 41
2017-08-12 16:00:00 24.8 7 Noroeste 17 Noroeste 0 -- -- 39
2017-08-12 15:00:00 23.9 5 Noroeste 15 Oeste 0 -- -- 50
2017-08-12 14:00:00 22.1 6 Norte 15 Norte 0 -- -- 43
2017-08-12 13:00:00 21.7 3 Nordeste 6 Este 0 -- -- 48
2017-08-12 12:00:00 20.2 2 Nordeste 6 Este 0 -- -- 46
2017-08-12 11:00:00 18.5 2 Este 6 Este 0 -- -- 63
2017-08-12 10:00:00 16.6 0 Calma 12 Sudeste 0 -- -- 66
2017-08-12 09:00:00 15 5 Sudeste 19 Sudeste 0 -- -- 63
2017-08-12 08:00:00 12.9 8 Sudeste 18 Sudeste 0 -- -- 69
2017-08-12 07:00:00 13.1 9 Sudeste 19 Sudeste 0 -- -- 69
2017-08-12 06:00:00 14.2 13 Sudeste 22 Sudeste 0 -- -- 62
2017-08-12 05:00:00 14 12 Sudeste 23 Sudeste 0 -- -- 68
2017-08-12 04:00:00 11.9 0 Calma 8 Este 0 -- -- 89
2017-08-12 03:00:00 12 3 Este 11 Este 0 -- -- 89
2017-08-12 02:00:00 11.9 3 Este 12 Este 0 -- -- 92
2017-08-12 01:00:00 12.6 3 Este 11 Este 0 -- -- 89
2017-08-12 00:00:00 13.3 2 Este 9 Este 0 -- -- 86
2017-08-11 23:00:00 13.8 2 Nordeste 12 Este 0 -- -- 84
2017-08-11 22:00:00 15 3 Nordeste 14 Nordeste 0 -- -- 78
2017-08-11 21:00:00 16.5 6 Nordeste 14 Nordeste 0 -- -- 70
2017-08-11 20:00:00 17.9 6 Noroeste 15 Oeste 0 -- -- 71
2017-08-11 19:00:00 20.4 6 Noroeste 19 Noroeste 0 -- -- 63
2017-08-11 18:00:00 20.8 6 Norte 19 Norte 0 -- -- 57
2017-08-11 17:00:00 22.6 5 Norte 15 Nordeste 0 -- -- 35
2017-08-11 16:00:00 21.4 5 Norte 14 Norte 0 -- -- 32
2017-08-11 15:00:00 20.6 5 Norte 12 Norte 0 -- -- 43
2017-08-11 14:00:00 19.5 2 Nordeste 10 Nordeste 0 -- -- 55
2017-08-11 13:00:00 18.1 3 Nordeste 7 Este 0 -- -- 58
2017-08-11 12:00:00 16.3 4 Este 9 Este 0 -- -- 66
2017-08-11 11:00:00 14.1 3 Este 15 Sudeste 0 -- -- 65
2017-08-11 10:00:00 11.6 3 Este 13 Este 0 -- -- 75
2017-08-11 09:00:00 9.4 5 Este 11 Sudeste 0 -- -- 88
2017-08-11 08:00:00 9.9 6 Sudeste 14 Sur 0 -- -- 84
2017-08-11 07:00:00 10.9 6 Sudoeste 18 Sudeste 0 -- -- 71
2017-08-11 06:00:00 7.5 3 Este 12 Este 0 -- -- 80
2017-08-11 05:00:00 7.6 4 Este 18 Este 0 -- -- 98
2017-08-11 04:00:00 7.8 4 Este 11 Este 0 -- -- 97
2017-08-11 03:00:00 8 3 Nordeste 16 Este 0 -- -- 97
2017-08-11 02:00:00 8.3 5 Nordeste 17 Este 0 -- -- 98
2017-08-11 01:00:00 8.8 4 Este 18 Este 0 -- -- 96
2017-08-11 00:00:00 9.1 4 Nordeste 15 Este 0 -- -- 95
2017-08-10 23:00:00 9.8 5 Nordeste 22 Este 0 -- -- 91
2017-08-10 22:00:00 10.8 5 Nordeste 22 Norte 0 -- -- 87
2017-08-10 21:00:00 12 6 Nordeste 20 Este 0 -- -- 82
2017-08-10 20:00:00 13.6 6 Nordeste 28 Nordeste 0 -- -- 75
2017-08-10 19:00:00 15.9 8 Nordeste 27 Nordeste 0 -- -- 67
2017-08-10 18:00:00 17.5 7 Nordeste 22 Norte 0 -- -- 58
2017-08-10 17:00:00 18.4 6 Nordeste 21 Nordeste 0 -- -- 53
2017-08-10 16:00:00 18.5 5 Nordeste 24 Norte 0 -- -- 52
2017-08-10 15:00:00 17.5 8 Nordeste 24 Norte 0 -- -- 55
2017-08-10 14:00:00 16.7 8 Nordeste 28 Nordeste 0 -- -- 59
2017-08-10 13:00:00 15.7 6 Nordeste 24 Norte 0 -- -- 68
2017-08-10 12:00:00 13.7 6 Nordeste 24 Este 0 -- -- 70
2017-08-10 11:00:00 12.6 8 Nordeste 27 Norte 0 -- -- 78
2017-08-10 10:00:00 11.1 5 Nordeste 24 Nordeste 0 -- -- 87
2017-08-10 09:00:00 8.9 7 Nordeste 24 Este 0 -- -- 92
2017-08-10 08:00:00 6.8 6 Nordeste 21 Este 0 -- -- 100
2017-08-10 07:00:00 6.6 6 Nordeste 20 Nordeste 0 -- -- 100
2017-08-10 06:00:00 6.5 6 Nordeste 22 Este 0 -- -- 100
2017-08-10 05:00:00 6.8 7 Nordeste 21 Nordeste 0 -- -- 100
2017-08-10 04:00:00 6.8 7 Nordeste 21 Nordeste 0 -- -- 97
2017-08-10 03:00:00 6.8 6 Nordeste 22 Este 0 -- -- 95
2017-08-10 02:00:00 6.9 6 Nordeste 26 Norte 0 -- -- 91
2017-08-10 01:00:00 7.2 8 Nordeste 28 Este 0 -- -- 90
2017-08-10 00:00:00 7.1 7 Nordeste 32 Nordeste 0 -- -- 94
2017-08-09 23:00:00 7.5 9 Nordeste 28 Nordeste 0 -- -- 94
2017-08-09 22:00:00 7.9 9 Nordeste 26 Nordeste 0 -- -- 91
2017-08-09 21:00:00 8.9 8 Nordeste 28 Este 0 -- -- 86
2017-08-09 20:00:00 10 8 Nordeste 25 Nordeste 0 -- -- 80
2017-08-09 19:00:00 11.5 8 Nordeste 31 Nordeste 0 -- -- 72
2017-08-09 18:00:00 12.8 9 Nordeste 28 Norte 0 -- -- 65
2017-08-09 17:00:00 13.4 7 Nordeste 27 Norte 0 -- -- 66
2017-08-09 16:00:00 13.2 9 Nordeste 25 Norte 0 -- -- 68
2017-08-09 15:00:00 13 8 Nordeste 24 Nordeste 0 -- -- 71
2017-08-09 14:00:00 13 7 Nordeste 29 Nordeste 0 -- -- 64
2017-08-09 13:00:00 11.3 6 Nordeste 24 Norte 0 -- -- 85
2017-08-09 12:00:00 10.8 6 Nordeste 21 Norte 0 -- -- 82
2017-08-09 11:00:00 8.9 8 Nordeste 23 Nordeste 0 -- -- 97
2017-08-09 10:00:00 7.4 7 Nordeste 23 Nordeste 0 -- -- 100
2017-08-09 09:00:00 7 8 Nordeste 21 Nordeste 0 -- -- 100
2017-08-09 08:00:00 6.9 5 Nordeste 19 Norte 0 -- -- 100
2017-08-09 07:00:00 7 6 Norte 13 Noroeste 0 -- -- 99
2017-08-09 06:00:00 7.2 3 Norte 13 Norte 0 -- -- 96
2017-08-09 05:00:00 7.3 6 Norte 20 Noroeste 0 -- -- 100
2017-08-09 04:00:00 7.5 11 Noroeste 24 Noroeste 0 -- -- 100
2017-08-09 03:00:00 7.5 9 Noroeste 18 Noroeste 0 -- -- 98
2017-08-09 02:00:00 8.1 9 Noroeste 17 Noroeste 0 -- -- 98
2017-08-09 01:00:00 8.6 5 Oeste 12 Oeste 0 -- -- 98
2017-08-09 00:00:00 9 4 Noroeste 10 Norte 0 -- -- 94
2017-08-08 23:00:00 9.3 4 Noroeste 16 Norte 0 -- -- 93
2017-08-08 22:00:00 9.9 9 Noroeste 21 Noroeste 0 -- -- 89
2017-08-08 21:00:00 11.6 11 Noroeste 22 Oeste 0 -- -- 83
2017-08-08 20:00:00 14.1 7 Noroeste 19 Noroeste 0 -- -- 72
2017-08-08 19:00:00 15.9 7 Noroeste 24 Oeste 0 -- -- 62
2017-08-08 18:00:00 15.9 6 Noroeste 20 Oeste 0 -- -- 59
2017-08-08 17:00:00 15.4 6 Norte 17 Noroeste 0 -- -- 61
2017-08-08 16:00:00 14.7 5 Norte 16 Oeste 0 -- -- 67
2017-08-08 15:00:00 14.2 5 Noroeste 18 Norte 0 -- -- 69
2017-08-08 14:00:00 14.1 5 Norte 15 Oeste 0 -- -- 69
2017-08-08 13:00:00 13.1 7 Norte 21 Nordeste 0 -- -- 74
2017-08-08 12:00:00 11.4 5 Norte 17 Norte 0 -- -- 89
2017-08-08 11:00:00 9.8 4 Norte 16 Norte 0 -- -- 96
2017-08-08 10:00:00 9.4 5 Norte 18 Norte 0 -- -- 100
2017-08-08 09:00:00 8.4 5 Noroeste 11 Oeste 0.2 -- -- 100
2017-08-08 08:00:00 8 6 Noroeste 13 Noroeste 0 -- -- 100
2017-08-08 07:00:00 7.6 2 Noroeste 8 Nordeste 0 -- -- 100
2017-08-08 06:00:00 7.5 3 Norte 10 Norte 0 -- -- 99
2017-08-08 05:00:00 7.4 2 Nordeste 8 Norte 0 -- -- 100
2017-08-08 04:00:00 7.4 2 Nordeste 16 Nordeste 0 -- -- 100
2017-08-08 03:00:00 7.1 5 Nordeste 14 Nordeste 0 -- -- 100
2017-08-08 02:00:00 7.1 6 Nordeste 15 Nordeste 0 -- -- 100
2017-08-08 01:00:00 7.7 5 Nordeste 19 Norte 0 -- -- 100
2017-08-08 00:00:00 8 8 Norte 18 Nordeste 0 -- -- 100
2017-08-07 23:00:00 8.3 8 Norte 25 Norte 0 -- -- 100
2017-08-07 22:00:00 9.5 8 Noroeste 29 Noroeste 0 -- -- 100
2017-08-07 21:00:00 10.2 5 Norte 22 Noroeste 0 -- -- 100
2017-08-07 20:00:00 10.8 8 Norte 18 Norte 0 -- -- 100
2017-08-07 19:00:00 11.7 6 Norte 21 Norte 0 -- -- 99
2017-08-07 18:00:00 12.9 6 Norte 19 Noroeste 0 -- -- 97
2017-08-07 17:00:00 12.1 8 Noroeste 18 Noroeste 0 -- -- 100
2017-08-07 16:00:00 12.6 6 Norte 18 Norte 0 -- -- 100
2017-08-07 15:00:00 13.3 9 Oeste 21 Oeste 0 -- -- 95
2017-08-07 14:00:00 14.6 9 Oeste 18 Oeste 0 -- -- 91
2017-08-07 13:00:00 14.1 3 Norte 12 Oeste 0 -- -- 93
2017-08-07 12:00:00 12.7 2 Noroeste 7 Este 0 -- -- 97
2017-08-07 11:00:00 11.9 0 Calma 8 Nordeste 0 -- -- 100
2017-08-07 10:00:00 11 3 Este 10 Nordeste 0 -- -- 100
2017-08-07 09:00:00 10.4 4 Este 11 Este 0 -- -- 100
2017-08-07 08:00:00 10.2 2 Este 9 Sudeste 0 -- -- 100
2017-08-07 07:00:00 10.2 3 Este 12 Este 0 -- -- 100
2017-08-07 06:00:00 10.3 3 Este 12 Este 0 -- -- 100
2017-08-07 05:00:00 10.5 2 Este 15 Sudeste 0 -- -- 100
2017-08-07 04:00:00 10.6 4 Este 13 Sudeste 0 -- -- 100
2017-08-07 03:00:00 10.8 5 Este 13 Sudeste 0 -- -- 99
2017-08-07 02:00:00 10.9 3 Este 12 Sudeste 0 -- -- 98
2017-08-07 01:00:00 11.3 3 Este 9 Sudeste 0 -- -- 97
2017-08-07 00:00:00 11.7 3 Este 15 Este 0 -- -- 95
2017-08-06 23:00:00 12.4 3 Nordeste 10 Nordeste 0 -- -- 93
2017-08-06 22:00:00 13.1 2 Nordeste 8 Sur 0 -- -- 90
2017-08-06 21:00:00 15 2 Nordeste 16 Este 0 -- -- 83
2017-08-06 20:00:00 16.9 6 Norte 15 Nordeste 0 -- -- 76
2017-08-06 19:00:00 18.7 4 Nordeste 14 Nordeste 0 -- -- 68
2017-08-06 18:00:00 19.1 3 Nordeste 18 Norte 0 -- -- 70
2017-08-06 17:00:00 20.8 7 Nordeste 19 Nordeste 0 -- -- 63
2017-08-06 16:00:00 20.9 3 Nordeste 12 Nordeste 0 -- -- 63
2017-08-06 15:00:00 20.1 3 Nordeste 12 Este 0 -- -- 64
2017-08-06 14:00:00 19.4 3 Nordeste 18 Nordeste 0 -- -- 66
2017-08-06 13:00:00 18.4 5 Nordeste 24 Este 0 -- -- 71
2017-08-06 12:00:00 17.3 5 Nordeste 19 Nordeste 0 -- -- 74
2017-08-06 11:00:00 14.4 6 Nordeste 27 Nordeste 0 -- -- 86
2017-08-06 10:00:00 12.8 5 Nordeste 23 Este 0 -- -- 94
2017-08-06 09:00:00 10.8 7 Nordeste 35 Nordeste 0 -- -- 100
2017-08-06 08:00:00 10.1 7 Nordeste 22 Este 0 -- -- 100
2017-08-06 07:00:00 9.8 7 Nordeste 29 Este 0 -- -- 100
2017-08-06 06:00:00 10.1 7 Nordeste 27 Este 0 -- -- 100
2017-08-06 05:00:00 10.2 6 Nordeste 23 Nordeste 0 -- -- 100
2017-08-06 04:00:00 10 7 Nordeste 25 Este 0 -- -- 100
2017-08-06 03:00:00 10.1 8 Nordeste 27 Norte 0 -- -- 100
2017-08-06 02:00:00 10.1 7 Nordeste 24 Nordeste 0 -- -- 100
2017-08-06 01:00:00 10.5 8 Nordeste 33 Este 0 -- -- 99
2017-08-06 00:00:00 11 11 Nordeste 30 Este 0 -- -- 99
2017-08-05 23:00:00 11.3 10 Nordeste 32 Nordeste 0 -- -- 99
2017-08-05 22:00:00 11.5 9 Nordeste 27 Este 0 -- -- 98
2017-08-05 21:00:00 11.9 8 Nordeste 32 Norte 0 -- -- 96
2017-08-05 20:00:00 12.6 9 Nordeste 29 Norte 0 -- -- 94
2017-08-05 19:00:00 13.1 9 Nordeste 27 Nordeste 0 -- -- 94
2017-08-05 18:00:00 14.7 7 Nordeste 27 Nordeste 0 -- -- 89
2017-08-05 17:00:00 15.7 8 Nordeste 26 Nordeste 0 -- -- 84
2017-08-05 16:00:00 16.1 5 Nordeste 19 Norte 0 -- -- 86
2017-08-05 15:00:00 14.9 7 Nordeste 22 Nordeste 0 -- -- 91
2017-08-05 14:00:00 14.2 8 Nordeste 19 Nordeste 0 -- -- 97
2017-08-05 13:00:00 13.2 5 Nordeste 20 Nordeste 0.2 -- -- 100
2017-08-05 12:00:00 12.9 5 Nordeste 14 Nordeste 0 -- -- 100
2017-08-05 11:00:00 12.8 3 Nordeste 14 Nordeste 0 -- -- 100
2017-08-05 10:00:00 12.2 5 Nordeste 19 Nordeste 0 -- -- 100
2017-08-05 09:00:00 12.1 5 Nordeste 17 Nordeste 0 -- -- 100
2017-08-05 08:00:00 12.2 6 Nordeste 12 Nordeste 0.2 -- -- 100
2017-08-05 07:00:00 12.3 6 Nordeste 14 Nordeste 0 -- -- 100
2017-08-05 06:00:00 13.1 6 Norte 10 Norte 0 -- -- 100
2017-08-05 05:00:00 14.8 5 Oeste 9 Noroeste 0 -- -- 98
2017-08-05 04:00:00 16.5 0 Calma 6 Noroeste 0.2 -- -- 100
2017-08-05 03:00:00 16.7 4 Oeste 7 Oeste 0 -- -- 100
2017-08-05 02:00:00 16.9 3 Oeste 8 Oeste 0 -- -- 100
2017-08-05 01:00:00 17 3 Oeste 13 Sudoeste 0 -- -- 100
2017-08-05 00:00:00 16.9 10 Oeste 17 Oeste 0 -- -- 99
2017-08-04 23:00:00 17.2 11 Oeste 18 Oeste 0 -- -- 96
2017-08-04 22:00:00 18 12 Oeste 22 Oeste 0 -- -- 92
2017-08-04 21:00:00 19.4 11 Oeste 19 Oeste 0 -- -- 87
2017-08-04 20:00:00 20.9 10 Oeste 25 Noroeste 0 -- -- 81
2017-08-04 19:00:00 22.5 10 Oeste 26 Oeste 0 -- -- 75
2017-08-04 18:00:00 24.2 8 Oeste 22 Oeste 0 -- -- 69
2017-08-04 17:00:00 24.7 9 Sudoeste 25 Oeste 0 -- -- 68
2017-08-04 16:00:00 24.5 9 Sudoeste 25 Oeste 0 -- -- 67
2017-08-04 15:00:00 23.6 9 Oeste 20 Sudoeste 0 -- -- 72
2017-08-04 14:00:00 21.4 6 Sudoeste 18 Oeste 0 -- -- 81
2017-08-04 13:00:00 20.2 5 Sudoeste 18 Sudoeste 0 -- -- 87
2017-08-04 12:00:00 19 6 Sur 23 Sudoeste 0 -- -- 93
2017-08-04 11:00:00 17.6 7 Sur 21 Sudoeste 0 -- -- 99
2017-08-04 10:00:00 17.1 8 Sudoeste 26 Sur 0 -- -- 100
2017-08-04 09:00:00 16.5 6 Sur 18 Sudoeste 0.2 -- -- 100
2017-08-04 08:00:00 16.1 7 Sudoeste 17 Sur 0.4 -- -- 100
2017-08-04 07:00:00 16 6 Sudoeste 15 Oeste 0 -- -- 100
2017-08-04 06:00:00 15.7 6 Sur 28 Sudoeste 0 -- -- 100
2017-08-04 05:00:00 15.7 11 Sudoeste 28 Sudoeste 0 -- -- 100
2017-08-04 04:00:00 15.6 9 Sudoeste 30 Oeste 0 -- -- 99
2017-08-04 03:00:00 15.9 13 Sudoeste 27 Sur 0 -- -- 97
2017-08-04 02:00:00 16.3 8 Sudoeste 18 Sudoeste 0 -- -- 94
2017-08-04 01:00:00 16.3 7 Sudoeste 19 Sudoeste 0 -- -- 92
2017-08-04 00:00:00 16.4 8 Oeste 18 Oeste 0 -- -- 89
2017-08-03 23:00:00 17.1 9 Oeste 21 Noroeste 0 -- -- 86
2017-08-03 22:00:00 18 13 Oeste 23 Sudoeste 0 -- -- 82
2017-08-03 21:00:00 20.1 12 Oeste 23 Sudoeste 0 -- -- 75
2017-08-03 20:00:00 21.6 9 Oeste 33 Oeste 0 -- -- 68
2017-08-03 19:00:00 23.4 10 Oeste 28 Sudoeste 0 -- -- 61
2017-08-03 18:00:00 24.1 11 Oeste 27 Oeste 0 -- -- 52
2017-08-03 17:00:00 23.9 11 Sudoeste 25 Sudoeste 0 -- -- 50
2017-08-03 16:00:00 23.2 11 Sudoeste 26 Oeste 0 -- -- 50
2017-08-03 15:00:00 22.2 11 Sudoeste 23 Oeste 0 -- -- 51
2017-08-03 14:00:00 20.7 10 Sudoeste 29 Sudoeste 0 -- -- 60
2017-08-03 13:00:00 19.7 9 Sudoeste 25 Sur 0 -- -- 63
2017-08-03 12:00:00 18.5 8 Oeste 17 Sur 0 -- -- 78
2017-08-03 11:00:00 15.9 7 Sudoeste 21 Sur 0 -- -- 91
2017-08-03 10:00:00 15.5 6 Sudoeste 23 Sudoeste 0 -- -- 98
2017-08-03 09:00:00 14.8 7 Sudoeste 22 Sudoeste 0 -- -- 100
2017-08-03 08:00:00 14.7 8 Sudoeste 25 Sur 0.2 -- -- 100
2017-08-03 07:00:00 14.5 6 Sudoeste 21 Sudoeste 0.2 -- -- 100
2017-08-03 06:00:00 14.8 5 Sudoeste 17 Sudoeste 0 -- -- 100
2017-08-03 05:00:00 14.4 8 Sudoeste 28 Sudoeste 0 -- -- 95
2017-08-03 04:00:00 14.2 9 Sudoeste 24 Sudoeste 0 -- -- 89
2017-08-03 03:00:00 14.1 11 Sudoeste 23 Oeste 0 -- -- 90
2017-08-03 02:00:00 13.8 7 Sudoeste 22 Oeste 0 -- -- 99
2017-08-03 01:00:00 14.1 10 Oeste 27 Sudoeste 0 -- -- 99
2017-08-03 00:00:00 14.7 12 Oeste 24 Sudoeste 0 -- -- 96
2017-08-02 23:00:00 15.8 14 Sudoeste 26 Oeste 0 -- -- 90
2017-08-02 22:00:00 17.2 15 Oeste 27 Oeste 0 -- -- 83
2017-08-02 21:00:00 19.8 13 Oeste 28 Oeste 0 -- -- 71
2017-08-02 20:00:00 22.3 9 Oeste 24 Sudoeste 0 -- -- 61
2017-08-02 19:00:00 24.2 6 Oeste 18 Oeste 0 -- -- 45
2017-08-02 18:00:00 24.1 6 Oeste 20 Noroeste 0 -- -- 43
2017-08-02 17:00:00 23.1 11 Sudoeste 27 Oeste 0 -- -- 43
2017-08-02 16:00:00 22.3 10 Sudoeste 28 Oeste 0 -- -- 44
2017-08-02 15:00:00 20.9 13 Oeste 24 Sudoeste 0 -- -- 51
2017-08-02 14:00:00 19.6 12 Oeste 25 Sudoeste 0.2 -- -- 49
2017-08-02 13:00:00 17.8 11 Oeste 21 Oeste 0 -- -- 72
2017-08-02 12:00:00 17.2 9 Sudoeste 18 Sudoeste 0 -- -- 77
2017-08-02 11:00:00 15.3 6 Sudoeste 14 Sudoeste 0 -- -- 81
2017-08-02 10:00:00 14.3 5 Sur 12 Sur 0 -- -- 82
2017-08-02 09:00:00 13 3 Sudoeste 8 Sur 0 -- -- 88
2017-08-02 08:00:00 11.9 6 Sudoeste 13 Sudoeste 0 -- -- 92
2017-08-02 07:00:00 11 9 Sudoeste 14 Sudoeste 0 -- -- 96
2017-08-02 06:00:00 11.4 9 Sudoeste 13 Sudoeste 0 -- -- 95
2017-08-02 05:00:00 11.3 11 Sudoeste 15 Oeste 0 -- -- 96
2017-08-02 04:00:00 11.4 9 Sudoeste 13 Oeste 0 -- -- 97
2017-08-02 03:00:00 11.6 6 Oeste 8 Oeste 0 -- -- 95
2017-08-02 02:00:00 11.6 3 Sudoeste 5 Oeste 0 -- -- 95
2017-08-02 01:00:00 11.9 4 Sudoeste 9 Oeste 0 -- -- 94
2017-08-02 00:00:00 12.4 8 Oeste 13 Noroeste 0 -- -- 94
2017-08-01 23:00:00 13 8 Noroeste 17 Oeste 0 -- -- 93
2017-08-01 22:00:00 14.2 10 Noroeste 18 Oeste 0 -- -- 88
2017-08-01 21:00:00 16.6 9 Noroeste 18 Noroeste 0 -- -- 76
2017-08-01 20:00:00 18.2 9 Oeste 25 Oeste 0 -- -- 58
2017-08-01 19:00:00 20 9 Oeste 22 Oeste 0 -- -- 54
2017-08-01 18:00:00 20.2 9 Noroeste 19 Oeste 0 -- -- 52
2017-08-01 17:00:00 19.7 5 Oeste 17 Oeste 0 -- -- 59
2017-08-01 16:00:00 19.1 10 Oeste 19 Noroeste 0 -- -- 59
2017-08-01 15:00:00 17.4 5 Noroeste 17 Oeste 0 -- -- 70
2017-08-01 14:00:00 15.3 5 Oeste 11 Noroeste 0 -- -- 81
2017-08-01 13:00:00 14.1 4 Noroeste 10 Oeste 0 -- -- 86
2017-08-01 12:00:00 12.9 3 Nordeste 9 Este 0 -- -- 91
2017-08-01 11:00:00 12.2 3 Nordeste 14 Norte 0 -- -- 97
2017-08-01 10:00:00 11 3 Nordeste 9 Nordeste 0 -- -- 100
2017-08-01 09:00:00 10.7 2 Norte 9 Nordeste 0 -- -- 100
2017-08-01 08:00:00 10.5 0 Calma 8 Nordeste 0 -- -- 100
2017-08-01 07:00:00 10.7 2 Nordeste 8 Norte 0 -- -- 100
2017-08-01 06:00:00 10.6 0 Calma 10 Nordeste 0 -- -- 100
2017-08-01 05:00:00 10.6 3 Nordeste 11 Nordeste 0 -- -- 100
2017-08-01 04:00:00 10.8 3 Nordeste 12 Norte 0 -- -- 100
2017-08-01 03:00:00 11.1 2 Nordeste 7 Nordeste 0 -- -- 99
2017-08-01 02:00:00 11.3 0 Calma 9 Nordeste 0 -- -- 99
2017-08-01 01:00:00 11.4 2 Nordeste 9 Este 0 -- -- 98
2017-08-01 00:00:00 11.3 5 Nordeste 10 Norte 0 -- -- 98
2017-07-31 23:00:00 11.5 4 Nordeste 14 Nordeste 0 -- -- 98
2017-07-31 22:00:00 12.1 6 Norte 17 Norte 0 -- -- 96
2017-07-31 21:00:00 13.3 8 Noroeste 22 Norte 0 -- -- 92
2017-07-31 20:00:00 15.4 6 Norte 16 Norte 0 -- -- 82
2017-07-31 19:00:00 16.7 5 Norte 14 Norte 0 -- -- 76
2017-07-31 18:00:00 18.5 4 Norte 17 Oeste 0 -- -- 68
2017-07-31 17:00:00 18 6 Oeste 15 Noroeste 0 -- -- 61
2017-07-31 16:00:00 17 3 Norte 15 Noroeste 0 -- -- 76
2017-07-31 15:00:00 16 3 Norte 8 Nordeste 0 -- -- 77
2017-07-31 14:00:00 14.8 2 Noroeste 10 Nordeste 0 -- -- 80
2017-07-31 13:00:00 13.4 3 Noroeste 10 Oeste 0 -- -- 86
2017-07-31 12:00:00 12.2 3 Nordeste 9 Norte 0 -- -- 94
2017-07-31 11:00:00 11.2 2 Norte 10 Nordeste 0 -- -- 97
2017-07-31 10:00:00 11 2 Nordeste 6 Norte 0 -- -- 100
2017-07-31 09:00:00 10.9 0 Calma 6 Nordeste 0 -- -- 100
2017-07-31 08:00:00 10.6 3 Nordeste 9 Este 0 -- -- 100
2017-07-31 07:00:00 10.6 3 Nordeste 12 Nordeste 0 -- -- 100
2017-07-31 06:00:00 10.4 4 Nordeste 11 Norte 0 -- -- 100
2017-07-31 05:00:00 10.5 3 Norte 11 Oeste 0 -- -- 99
2017-07-31 04:00:00 10.8 0 Calma 8 Nordeste 0 -- -- 98
2017-07-31 03:00:00 10.6 2 Nordeste 11 Norte 0 -- -- 97
2017-07-31 02:00:00 10.7 4 Oeste 12 Oeste 0 -- -- 97
2017-07-31 01:00:00 10.9 6 Oeste 17 Noroeste 0 -- -- 96
2017-07-31 00:00:00 11 10 Noroeste 17 Noroeste 0 -- -- 96
2017-07-30 23:00:00 11.3 8 Noroeste 16 Noroeste 0 -- -- 94
2017-07-30 22:00:00 11.7 9 Noroeste 18 Noroeste 0 -- -- 92
2017-07-30 21:00:00 13.8 9 Noroeste 21 Oeste 0 -- -- 85
2017-07-30 20:00:00 15.1 10 Oeste 19 Oeste 0 -- -- 72
2017-07-30 19:00:00 17.1 7 Noroeste 21 Noroeste 0 -- -- 66
2017-07-30 18:00:00 17 11 Oeste 22 Oeste 0 -- -- 68
2017-07-30 17:00:00 17.4 5 Oeste 18 Sudoeste 0 -- -- 64
2017-07-30 16:00:00 17.7 6 Oeste 23 Oeste 0 -- -- 63
2017-07-30 15:00:00 17 9 Oeste 20 Oeste 0 -- -- 66
2017-07-30 14:00:00 16.4 9 Oeste 26 Oeste 0 -- -- 70
2017-07-30 13:00:00 16.2 7 Oeste 18 Oeste 0 -- -- 70
2017-07-30 12:00:00 14.6 8 Oeste 24 Sudoeste 0 -- -- 86
2017-07-30 11:00:00 13.6 7 Sudoeste 23 Oeste 0 -- -- 92
2017-07-30 10:00:00 13.4 8 Sudoeste 22 Oeste 0 -- -- 89
2017-07-30 09:00:00 12.7 7 Sudoeste 22 Sudoeste 0 -- -- 93
2017-07-30 08:00:00 12.4 9 Sudoeste 21 Sudoeste 0 -- -- 92
2017-07-30 07:00:00 12.5 9 Sudoeste 23 Sudoeste 0 -- -- 96
2017-07-30 06:00:00 12.7 8 Sudoeste 22 Sudoeste 0 -- -- 96
2017-07-30 05:00:00 12.9 10 Sudoeste 26 Sudoeste 0 -- -- 95
2017-07-30 04:00:00 13.5 7 Sudoeste 19 Sudoeste 0 -- -- 93
2017-07-30 03:00:00 13.7 7 Sudoeste 23 Sudoeste 0 -- -- 92
2017-07-30 02:00:00 14 9 Sudoeste 24 Sudoeste 0 -- -- 90
2017-07-30 01:00:00 14.2 7 Sur 26 Oeste 0 -- -- 89
2017-07-30 00:00:00 14.2 12 Sudoeste 24 Sur 0 -- -- 85
2017-07-29 23:00:00 14.9 7 Sudoeste 25 Oeste 0 -- -- 86
2017-07-29 22:00:00 16.5 7 Oeste 26 Oeste 0 -- -- 75
2017-07-29 21:00:00 18.8 7 Sudoeste 32 Sudoeste 0 -- -- 62
2017-07-29 20:00:00 20.7 8 Sur 34 Oeste 0 -- -- 59
2017-07-29 19:00:00 22.3 9 Sudoeste 32 Sudoeste 0 -- -- 53
2017-07-29 18:00:00 23.3 9 Sudoeste 26 Sur 0 -- -- 52
2017-07-29 17:00:00 23 13 Sudoeste 33 Sudoeste 0 -- -- 57
2017-07-29 16:00:00 22.4 11 Sur 33 Sudoeste 0 -- -- 61
2017-07-29 15:00:00 21.3 12 Sudoeste 38 Sudoeste 0 -- -- 68
2017-07-29 14:00:00 20.3 9 Sudoeste 29 Sudoeste 0 -- -- 78
2017-07-29 13:00:00 19.1 9 Sudoeste 26 Oeste 0 -- -- 83
2017-07-29 12:00:00 17.9 8 Sudoeste 24 Sudoeste 0 -- -- 87
2017-07-29 11:00:00 16.3 8 Sudoeste 21 Sudoeste 0 -- -- 93
2017-07-29 10:00:00 15.1 7 Sudoeste 22 Sudoeste 0 -- -- 98
2017-07-29 09:00:00 14.6 7 Sur 25 Oeste 0.8 -- -- 100
2017-07-29 08:00:00 14.7 5 Sudoeste 17 Sudoeste 1 -- -- 100
2017-07-29 07:00:00 14.7 4 Sudoeste 17 Oeste 0.2 -- -- 99
2017-07-29 06:00:00 15.2 7 Sur 21 Sudoeste 0.2 -- -- 100
2017-07-29 05:00:00 15.4 4 Sur 15 Sur 0 -- -- 99
2017-07-29 04:00:00 15.6 4 Sur 15 Sur 0 -- -- 99
2017-07-29 03:00:00 15.7 3 Sudoeste 12 Oeste 0 -- -- 98
2017-07-29 02:00:00 15.5 2 Sur 10 Sudoeste 0 -- -- 97
2017-07-29 01:00:00 15.4 5 Sudoeste 15 Oeste 0 -- -- 97
2017-07-29 00:00:00 15.9 5 Oeste 19 Sudoeste 0 -- -- 96
2017-07-28 23:00:00 16.3 10 Oeste 24 Oeste 0 -- -- 93
2017-07-28 22:00:00 17.1 10 Oeste 18 Oeste 0 -- -- 89
2017-07-28 21:00:00 18.1 9 Oeste 24 Oeste 0 -- -- 84
2017-07-28 20:00:00 19.9 10 Oeste 24 Oeste 0 -- -- 72
2017-07-28 19:00:00 21.4 13 Oeste 27 Noroeste 0 -- -- 61
2017-07-28 18:00:00 24.6 9 Oeste 26 Noroeste 0 -- -- 44
2017-07-28 17:00:00 24.6 8 Oeste 26 Sudoeste 0 -- -- 44
2017-07-28 16:00:00 23.8 10 Oeste 22 Oeste 0 -- -- 44
2017-07-28 15:00:00 21.4 8 Oeste 19 Oeste 0 -- -- 46
2017-07-28 14:00:00 21.5 8 Oeste 17 Sudoeste 0 -- -- 41
2017-07-28 13:00:00 20.2 8 Sudoeste 15 Sudoeste 0 -- -- 51
2017-07-28 12:00:00 18.3 4 Sudoeste 13 Oeste 0 -- -- 61
2017-07-28 11:00:00 15.8 3 Sudoeste 10 Sur 0 -- -- 66
2017-07-28 10:00:00 13.7 4 Sur 22 Sudoeste 0 -- -- 95
2017-07-28 09:00:00 12.8 14 Sudoeste 21 Sudoeste 0 -- -- 100
2017-07-28 08:00:00 12.6 10 Sudoeste 19 Sudoeste 0 -- -- 100
2017-07-28 07:00:00 12.5 10 Sudoeste 16 Oeste 0 -- -- 100
2017-07-28 06:00:00 12.5 7 Sudoeste 14 Sudoeste 0 -- -- 99
2017-07-28 05:00:00 12.7 4 Sudoeste 14 Sudoeste 0 -- -- 95
2017-07-28 04:00:00 13.6 4 Sur 13 Oeste 0 -- -- 98
2017-07-28 03:00:00 14 6 Sudoeste 15 Sudoeste 0 -- -- 99
2017-07-28 02:00:00 14.7 4 Sudoeste 14 Oeste 0 -- -- 99
2017-07-28 01:00:00 14.8 5 Sudoeste 19 Oeste 0 -- -- 99
2017-07-28 00:00:00 15 8 Oeste 21 Noroeste 0 -- -- 98
2017-07-27 23:00:00 15.7 8 Oeste 25 Oeste 0 -- -- 95
2017-07-27 22:00:00 16.8 12 Oeste 25 Oeste 0 -- -- 91
2017-07-27 21:00:00 18 10 Oeste 29 Oeste 0 -- -- 88
2017-07-27 20:00:00 19.4 10 Oeste 24 Oeste 0 -- -- 82
2017-07-27 19:00:00 20.5 9 Oeste 28 Noroeste 0 -- -- 79
2017-07-27 18:00:00 21.7 9 Oeste 24 Oeste 0 -- -- 75
2017-07-27 17:00:00 21.4 9 Oeste 23 Oeste 0 -- -- 76
2017-07-27 16:00:00 20.9 7 Oeste 21 Noroeste 0 -- -- 78
2017-07-27 15:00:00 19.8 6 Oeste 18 Oeste 0 -- -- 81
2017-07-27 14:00:00 20.3 7 Oeste 23 Sudoeste 0 -- -- 79
2017-07-27 13:00:00 20.1 9 Oeste 18 Sudoeste 0 -- -- 79
2017-07-27 12:00:00 18.6 7 Sudoeste 15 Sudoeste 0 -- -- 81
2017-07-27 11:00:00 16.7 4 Oeste 10 Sudoeste 0 -- -- 89
2017-07-27 10:00:00 15 4 Sudoeste 15 Oeste 0 -- -- 95
2017-07-27 09:00:00 14.8 6 Oeste 15 Oeste 0 -- -- 89
2017-07-27 08:00:00 14.6 8 Oeste 14 Sudoeste 0 -- -- 85
2017-07-27 07:00:00 14.6 9 Sudoeste 12 Sudoeste 0 -- -- 86
2017-07-27 06:00:00 14.2 10 Sudoeste 12 Sudoeste 0 -- -- 81
2017-07-27 05:00:00 14.6 9 Oeste 14 Oeste 0 -- -- 77
2017-07-27 04:00:00 14.3 9 Oeste 14 Oeste 0 -- -- 74
2017-07-27 03:00:00 14.7 10 Oeste 15 Oeste 0 -- -- 88
2017-07-27 02:00:00 15.2 11 Oeste 15 Oeste 0 -- -- 88
2017-07-27 01:00:00 15.7 9 Oeste 14 Oeste 0 -- -- 83
2017-07-27 00:00:00 16.3 8 Oeste 10 Oeste 0 -- -- 75
2017-07-26 23:00:00 16.8 5 Oeste 14 Oeste 0 -- -- 67
2017-07-26 22:00:00 18.1 9 Oeste 20 Oeste 0 -- -- 56
2017-07-26 21:00:00 20.1 10 Oeste 20 Oeste 0 -- -- 54
2017-07-26 20:00:00 22.1 8 Noroeste 23 Noroeste 0 -- -- 52
2017-07-26 19:00:00 24.2 11 Oeste 24 Oeste 0 -- -- 36
2017-07-26 18:00:00 25.1 7 Oeste 19 Sudoeste 0 -- -- 34
2017-07-26 17:00:00 24.6 9 Oeste 24 Oeste 0 -- -- 40
2017-07-26 16:00:00 23.7 9 Oeste 22 Oeste 0 -- -- 43
2017-07-26 15:00:00 22.6 8 Oeste 21 Noroeste 0 -- -- 46
2017-07-26 14:00:00 21.5 10 Oeste 21 Oeste 0 -- -- 50
2017-07-26 13:00:00 20.6 10 Oeste 17 Sudoeste 0 -- -- 64
2017-07-26 12:00:00 19.4 6 Oeste 12 Oeste 0 -- -- 67
2017-07-26 11:00:00 18 6 Sudoeste 12 Oeste 0 -- -- 73
2017-07-26 10:00:00 17.5 3 Sudoeste 5 Noroeste 0 -- -- 74
2017-07-26 09:00:00 16.1 0 Calma 3 Este 0 -- -- 80
2017-07-26 08:00:00 14.5 0 Calma 4 Norte 0 -- -- 83
2017-07-26 07:00:00 13.7 2 Norte 5 Norte 0 -- -- 82
2017-07-26 06:00:00 12.9 0 Calma 8 Este 0 -- -- 77
2017-07-26 05:00:00 12.8 0 Calma 9 Sudeste 0 -- -- 82
2017-07-26 04:00:00 13.3 2 Este 8 Nordeste 0 -- -- 83
2017-07-26 03:00:00 13.5 2 Nordeste 8 Este 0 -- -- 80
2017-07-26 02:00:00 13.2 2 Este 10 Este 0 -- -- 83
2017-07-26 01:00:00 13.4 2 Este 12 Nordeste 0 -- -- 84
2017-07-26 00:00:00 14.1 3 Nordeste 16 Este 0 -- -- 79
2017-07-25 23:00:00 14.6 6 Nordeste 18 Este 0 -- -- 78
2017-07-25 22:00:00 15 6 Nordeste 13 Nordeste 0 -- -- 80
2017-07-25 21:00:00 16.6 4 Noroeste 15 Norte 0 -- -- 75
2017-07-25 20:00:00 17.6 8 Norte 18 Norte 0 -- -- 74
2017-07-25 19:00:00 20.1 8 Norte 19 Noroeste 0 -- -- 62
2017-07-25 18:00:00 20.4 8 Norte 22 Norte 0 -- -- 67
2017-07-25 17:00:00 20.7 9 Norte 23 Norte 0 -- -- 65
2017-07-25 16:00:00 21.1 5 Norte 18 Norte 0 -- -- 57
2017-07-25 15:00:00 19.9 7 Norte 18 Nordeste 0 -- -- 61
2017-07-25 14:00:00 19.7 6 Nordeste 21 Nordeste 0 -- -- 57
2017-07-25 13:00:00 18.4 8 Nordeste 18 Nordeste 0 -- -- 65
2017-07-25 12:00:00 16.3 3 Nordeste 12 Nordeste 0 -- -- 81
2017-07-25 11:00:00 12.7 3 Este 14 Nordeste 0 -- -- 92
2017-07-25 10:00:00 11.1 4 Nordeste 15 Nordeste 0 -- -- 99
2017-07-25 09:00:00 10.7 4 Nordeste 22 Norte 0 -- -- 100
2017-07-25 08:00:00 9.3 4 Nordeste 15 Este 0 -- -- 100
2017-07-25 07:00:00 9.1 3 Nordeste 19 Nordeste 0 -- -- 100
2017-07-25 06:00:00 9 7 Nordeste 17 Este 0 -- -- 100
2017-07-25 05:00:00 9.7 5 Nordeste 16 Nordeste 0 -- -- 100
2017-07-25 04:00:00 9.9 4 Nordeste 15 Nordeste 0 -- -- 100
2017-07-25 03:00:00 10 3 Nordeste 17 Nordeste 0 -- -- 100
2017-07-25 02:00:00 10.1 4 Nordeste 18 Este 0 -- -- 100
2017-07-25 01:00:00 10.7 5 Nordeste 17 Nordeste 0 -- -- 99
2017-07-25 00:00:00 10.8 5 Nordeste 19 Nordeste 0 -- -- 99
2017-07-24 23:00:00 11.2 3 Nordeste 14 Nordeste 0 -- -- 98
2017-07-24 22:00:00 11.5 5 Nordeste 24 Nordeste 0 -- -- 96
2017-07-24 21:00:00 13 6 Nordeste 19 Nordeste 0 -- -- 92
2017-07-24 20:00:00 14.4 5 Nordeste 21 Norte 0 -- -- 83
2017-07-24 19:00:00 16.5 6 Nordeste 21 Noroeste 0 -- -- 79
2017-07-24 18:00:00 17.2 6 Norte 22 Norte 0 -- -- 75
2017-07-24 17:00:00 17.4 8 Norte 24 Noroeste 0 -- -- 74
2017-07-24 16:00:00 17.4 7 Noroeste 21 Norte 0 -- -- 72
2017-07-24 15:00:00 16.6 6 Norte 19 Noroeste 0 -- -- 73
2017-07-24 14:00:00 15.9 6 Norte 21 Nordeste 0 -- -- 80
2017-07-24 13:00:00 15.2 8 Norte 20 Norte 0 -- -- 86
2017-07-24 12:00:00 14.2 7 Norte 18 Nordeste 0 -- -- 96
2017-07-24 11:00:00 13.6 6 Norte 14 Noroeste 0 -- -- 96
2017-07-24 10:00:00 12.5 5 Noroeste 17 Noroeste 0 -- -- 100
2017-07-24 09:00:00 11.7 5 Noroeste 18 Noroeste 0.2 -- -- 100
2017-07-24 08:00:00 11.9 9 Noroeste 17 Noroeste 0 -- -- 100
2017-07-24 07:00:00 11.8 5 Noroeste 18 Noroeste 0.2 -- -- 100
2017-07-24 06:00:00 12.1 6 Noroeste 15 Noroeste 0.8 -- -- 100
2017-07-24 05:00:00 12.2 8 Oeste 19 Noroeste 0 -- -- 100
2017-07-24 04:00:00 12.4 9 Noroeste 18 Oeste 0 -- -- 100
2017-07-24 03:00:00 12.8 9 Noroeste 19 Noroeste 0.2 -- -- 100
2017-07-24 02:00:00 13.5 7 Oeste 21 Oeste 0.8 -- -- 100
2017-07-24 01:00:00 13.7 8 Oeste 23 Noroeste 1 -- -- 100
2017-07-24 00:00:00 13.8 7 Oeste 18 Oeste 0.2 -- -- 100
2017-07-23 23:00:00 14.1 8 Noroeste 19 Oeste 0 -- -- 100
2017-07-23 22:00:00 14.5 10 Oeste 22 Noroeste 0 -- -- 97
2017-07-23 21:00:00 15.6 9 Noroeste 23 Noroeste 0 -- -- 94
2017-07-23 20:00:00 17 10 Noroeste 24 Noroeste 0 -- -- 89
2017-07-23 19:00:00 18.6 12 Oeste 24 Oeste 0 -- -- 81
2017-07-23 18:00:00 19.1 11 Oeste 24 Noroeste 0 -- -- 80
2017-07-23 17:00:00 19 11 Noroeste 25 Oeste 0 -- -- 77
2017-07-23 16:00:00 19.3 6 Oeste 20 Noroeste 0 -- -- 77
2017-07-23 15:00:00 18.1 8 Oeste 24 Oeste 0 -- -- 79
2017-07-23 14:00:00 17.7 7 Oeste 17 Oeste 0 -- -- 78
2017-07-23 13:00:00 17 4 Norte 13 Norte 0 -- -- 81
2017-07-23 12:00:00 14.9 5 Nordeste 14 Norte 0 -- -- 80
2017-07-23 11:00:00 13.6 7 Norte 15 Norte 0 -- -- 77
2017-07-23 10:00:00 12.9 5 Oeste 11 Noroeste 0 -- -- 75
2017-07-23 09:00:00 12 3 Noroeste 9 Noroeste 0 -- -- 75
2017-07-23 08:00:00 10.2 3 Noroeste 6 Noroeste 0 -- -- 88
2017-07-23 07:00:00 9.8 4 Noroeste 7 Noroeste 0 -- -- 82
2017-07-23 06:00:00 9.6 0 Calma 5 Sudoeste 0 -- -- 93
2017-07-23 05:00:00 9.7 2 Sudoeste 6 Sudeste 0 -- -- 96
2017-07-23 04:00:00 9.6 2 Sudeste 6 Este 0 -- -- 97
2017-07-23 03:00:00 9.7 0 Calma 4 Este 0 -- -- 97
2017-07-23 02:00:00 9.8 0 Calma 5 Este 0 -- -- 97
2017-07-23 01:00:00 9.9 0 Calma 10 Noroeste 0 -- -- 95
2017-07-23 00:00:00 10.3 5 Noroeste 14 Noroeste 0 -- -- 96